LHA8LH KMFR-KRNT
Flight info
| Callsign | LHA8LH |
|---|---|
| Flight time | 0h 51m |
| Altitude | 38000 |
| Route | OED V595 CUTTR/N0451F410 DCT RENAA DCT BTG |
| Aircraft | B737/M-SDE1E2FGIJ1RWYZ/S |
Departure
| Time | 2026-04-20 18:20 |
|---|---|
| Airport | Rogue Valley International-Medford Airport (KMFR) |
Arrival
| Time | 2026-04-20 19:11 |
|---|---|
| Airport | Renton Municipal Airport (KRNT) |
| Time | Latitude | Longitude | Altitude | Speed | Heading |
|---|---|---|---|---|---|
| 2026-04-20 18:09 | 42.36848 | -122.87339 | 1332 ft | 0 kts | 248° |
| 2026-04-20 18:12 | 42.36855 | -122.87312 | 1337 ft | 4 kts | 255° |
| 2026-04-20 18:12 | 42.36858 | -122.87291 | 1333 ft | 2 kts | 272° |
| 2026-04-20 18:13 | 42.36856 | -122.87276 | 1333 ft | 2 kts | 288° |
| 2026-04-20 18:13 | 42.36852 | -122.87260 | 1340 ft | 2 kts | 294° |
| 2026-04-20 18:13 | 42.36847 | -122.87246 | 1338 ft | 2 kts | 294° |
| 2026-04-20 18:13 | 42.36846 | -122.87243 | 1338 ft | 0 kts | 294° |
| 2026-04-20 18:15 | 42.36847 | -122.87247 | 1338 ft | 2 kts | 294° |
| 2026-04-20 18:15 | 42.36868 | -122.87286 | 1333 ft | 8 kts | 320° |
| 2026-04-20 18:15 | 42.36935 | -122.87328 | 1331 ft | 13 kts | 339° |
| 2026-04-20 18:15 | 42.37033 | -122.87377 | 1334 ft | 17 kts | 341° |
| 2026-04-20 18:16 | 42.37136 | -122.87471 | 1327 ft | 19 kts | 342° |
| 2026-04-20 18:16 | 42.37217 | -122.87478 | 1330 ft | 9 kts | 45° |
| 2026-04-20 18:16 | 42.37207 | -122.87401 | 1329 ft | 9 kts | 111° |
| 2026-04-20 18:16 | 42.37250 | -122.87361 | 1326 ft | 10 kts | 348° |
| 2026-04-20 18:17 | 42.37330 | -122.87402 | 1325 ft | 14 kts | 339° |
| 2026-04-20 18:17 | 42.37437 | -122.87458 | 1323 ft | 19 kts | 339° |
| 2026-04-20 18:17 | 42.37572 | -122.87528 | 1320 ft | 23 kts | 338° |
| 2026-04-20 18:17 | 42.37729 | -122.87612 | 1318 ft | 26 kts | 339° |
| 2026-04-20 18:18 | 42.37902 | -122.87701 | 1315 ft | 26 kts | 339° |
| 2026-04-20 18:18 | 42.38065 | -122.87787 | 1312 ft | 24 kts | 338° |
| 2026-04-20 18:18 | 42.38216 | -122.87866 | 1309 ft | 23 kts | 339° |
| 2026-04-20 18:18 | 42.38362 | -122.87942 | 1306 ft | 22 kts | 339° |
| 2026-04-20 18:19 | 42.38504 | -122.88015 | 1303 ft | 22 kts | 339° |
| 2026-04-20 18:19 | 42.38582 | -122.88025 | 1302 ft | 8 kts | 39° |
| 2026-04-20 18:19 | 42.38607 | -122.87951 | 1300 ft | 9 kts | 75° |
| 2026-04-20 18:19 | 42.38562 | -122.87888 | 1301 ft | 16 kts | 158° |
| 2026-04-20 18:20 | 42.38226 | -122.87713 | 1309 ft | 92 kts | 159° |
| 2026-04-20 18:20 | 42.37410 | -122.87272 | 1335 ft | 156 kts | 155° |
| 2026-04-20 18:20 | 42.36391 | -122.86689 | 2036 ft | 158 kts | 156° |
| 2026-04-20 18:20 | 42.35340 | -122.86393 | 2956 ft | 152 kts | 187° |
| 2026-04-20 18:21 | 42.34350 | -122.86931 | 3766 ft | 164 kts | 203° |
| 2026-04-20 18:21 | 42.33375 | -122.88034 | 4078 ft | 206 kts | 233° |
| 2026-04-20 18:21 | 42.32895 | -122.90015 | 4342 ft | 244 kts | 264° |
| 2026-04-20 18:21 | 42.33310 | -122.92327 | 4819 ft | 270 kts | 293° |
| 2026-04-20 18:22 | 42.34570 | -122.94340 | 5293 ft | 294 kts | 325° |
| 2026-04-20 18:22 | 42.36512 | -122.95204 | 6301 ft | 299 kts | 0° |
| 2026-04-20 18:22 | 42.38505 | -122.94577 | 7370 ft | 295 kts | 32° |
| 2026-04-20 18:22 | 42.40343 | -122.93256 | 8373 ft | 307 kts | 27° |
| 2026-04-20 18:23 | 42.42278 | -122.92400 | 9347 ft | 319 kts | 16° |
| 2026-04-20 18:23 | 42.44490 | -122.91840 | 10345 ft | 329 kts | 10° |
| 2026-04-20 18:23 | 42.46840 | -122.91391 | 10974 ft | 352 kts | 13° |
| 2026-04-20 18:23 | 42.49186 | -122.90332 | 11787 ft | 359 kts | 31° |
| 2026-04-20 18:24 | 42.51332 | -122.88579 | 12846 ft | 362 kts | 37° |
| 2026-04-20 18:24 | 42.53445 | -122.86676 | 13865 ft | 369 kts | 38° |
| 2026-04-20 18:24 | 42.55595 | -122.84713 | 14804 ft | 376 kts | 39° |
| 2026-04-20 18:24 | 42.57790 | -122.82729 | 15815 ft | 382 kts | 39° |
| 2026-04-20 18:25 | 42.60028 | -122.80730 | 16637 ft | 386 kts | 38° |
| 2026-04-20 18:25 | 42.62280 | -122.78740 | 16959 ft | 389 kts | 38° |
| 2026-04-20 18:25 | 42.64569 | -122.76722 | 16975 ft | 393 kts | 38° |
| 2026-04-20 18:25 | 42.66850 | -122.74717 | 16938 ft | 388 kts | 38° |
| 2026-04-20 18:26 | 42.69200 | -122.72858 | 16970 ft | 396 kts | 30° |
| 2026-04-20 18:26 | 42.71814 | -122.71517 | 17210 ft | 408 kts | 21° |
| 2026-04-20 18:26 | 42.74537 | -122.70383 | 18251 ft | 409 kts | 20° |
| 2026-04-20 18:26 | 42.77269 | -122.69287 | 19310 ft | 410 kts | 20° |
| 2026-04-20 18:27 | 42.79991 | -122.68195 | 20213 ft | 417 kts | 19° |
| 2026-04-20 18:27 | 42.82798 | -122.67054 | 21060 ft | 424 kts | 19° |
| 2026-04-20 18:27 | 42.85636 | -122.65886 | 21982 ft | 428 kts | 19° |
| 2026-04-20 18:27 | 42.88499 | -122.64697 | 22907 ft | 433 kts | 20° |
| 2026-04-20 18:28 | 42.91403 | -122.63482 | 23683 ft | 439 kts | 19° |
| 2026-04-20 18:28 | 42.94348 | -122.62245 | 24312 ft | 446 kts | 19° |
| 2026-04-20 18:28 | 42.97340 | -122.60985 | 24928 ft | 454 kts | 19° |
| 2026-04-20 18:28 | 42.99394 | -122.60119 | 25342 ft | 459 kts | 18° |
| 2026-04-20 18:29 | 43.02467 | -122.58822 | 25946 ft | 466 kts | 17° |
| 2026-04-20 18:29 | 43.05588 | -122.57506 | 26538 ft | 473 kts | 17° |
| 2026-04-20 18:29 | 43.08708 | -122.56190 | 27113 ft | 479 kts | 17° |
| 2026-04-20 18:29 | 43.11966 | -122.54815 | 27661 ft | 488 kts | 16° |
| 2026-04-20 18:30 | 43.15183 | -122.53454 | 28218 ft | 493 kts | 15° |
| 2026-04-20 18:30 | 43.18483 | -122.52056 | 28784 ft | 500 kts | 15° |
| 2026-04-20 18:30 | 43.21831 | -122.50637 | 29332 ft | 507 kts | 14° |
| 2026-04-20 18:30 | 43.25223 | -122.49197 | 29779 ft | 514 kts | 15° |
| 2026-04-20 18:31 | 43.28655 | -122.47737 | 30318 ft | 518 kts | 15° |
| 2026-04-20 18:31 | 43.32103 | -122.46268 | 30843 ft | 520 kts | 15° |
| 2026-04-20 18:31 | 43.35572 | -122.44788 | 31315 ft | 524 kts | 15° |
| 2026-04-20 18:31 | 43.39067 | -122.43297 | 31743 ft | 528 kts | 15° |
| 2026-04-20 18:32 | 43.42618 | -122.41978 | 32152 ft | 529 kts | 8° |
| 2026-04-20 18:32 | 43.46253 | -122.41270 | 32630 ft | 526 kts | 359° |
| 2026-04-20 18:32 | 43.49881 | -122.41273 | 33197 ft | 519 kts | 351° |
| 2026-04-20 18:32 | 43.53486 | -122.41551 | 33686 ft | 519 kts | 350° |
| 2026-04-20 18:33 | 43.57098 | -122.41893 | 34098 ft | 521 kts | 349° |
| 2026-04-20 18:33 | 43.60703 | -122.42242 | 34619 ft | 518 kts | 349° |
| 2026-04-20 18:33 | 43.64292 | -122.42573 | 35160 ft | 516 kts | 350° |
| 2026-04-20 18:33 | 43.67870 | -122.42882 | 35583 ft | 516 kts | 350° |
| 2026-04-20 18:34 | 43.71450 | -122.43172 | 36005 ft | 515 kts | 351° |
| 2026-04-20 18:34 | 43.75022 | -122.43448 | 36483 ft | 513 kts | 351° |
| 2026-04-20 18:34 | 43.78577 | -122.43716 | 36974 ft | 511 kts | 351° |
| 2026-04-20 18:34 | 43.82113 | -122.43980 | 37523 ft | 507 kts | 351° |
| 2026-04-20 18:35 | 43.85630 | -122.44244 | 37877 ft | 507 kts | 351° |
| 2026-04-20 18:35 | 43.89165 | -122.44515 | 37830 ft | 509 kts | 351° |
| 2026-04-20 18:35 | 43.96217 | -122.45055 | 37850 ft | 504 kts | 351° |
| 2026-04-20 18:36 | 44.03214 | -122.45592 | 37856 ft | 504 kts | 351° |
| 2026-04-20 18:36 | 44.10217 | -122.46134 | 37846 ft | 504 kts | 351° |
| 2026-04-20 18:37 | 44.17224 | -122.46675 | 37840 ft | 504 kts | 351° |
| 2026-04-20 18:37 | 44.24221 | -122.47217 | 37849 ft | 504 kts | 351° |
| 2026-04-20 18:38 | 44.31227 | -122.47761 | 37880 ft | 503 kts | 350° |
| 2026-04-20 18:38 | 44.38218 | -122.48305 | 37852 ft | 503 kts | 351° |
| 2026-04-20 18:39 | 44.45170 | -122.48847 | 37844 ft | 504 kts | 350° |
| 2026-04-20 18:39 | 44.52174 | -122.49395 | 37853 ft | 504 kts | 351° |
| 2026-04-20 18:40 | 44.59186 | -122.49944 | 37850 ft | 505 kts | 351° |
| 2026-04-20 18:40 | 44.66207 | -122.50495 | 37836 ft | 505 kts | 351° |
| 2026-04-20 18:41 | 44.73224 | -122.51047 | 37837 ft | 505 kts | 351° |
| 2026-04-20 18:41 | 44.80233 | -122.51600 | 37844 ft | 505 kts | 351° |
| 2026-04-20 18:42 | 44.87241 | -122.52155 | 37837 ft | 504 kts | 351° |
| 2026-04-20 18:42 | 44.94241 | -122.52709 | 37840 ft | 503 kts | 351° |
| 2026-04-20 18:43 | 45.01232 | -122.53266 | 37855 ft | 503 kts | 351° |
| 2026-04-20 18:43 | 45.08208 | -122.53821 | 37861 ft | 502 kts | 350° |
| 2026-04-20 18:44 | 45.15179 | -122.54379 | 37853 ft | 501 kts | 350° |
| 2026-04-20 18:44 | 45.22144 | -122.54937 | 37863 ft | 501 kts | 350° |
| 2026-04-20 18:45 | 45.29107 | -122.55496 | 37866 ft | 501 kts | 351° |
| 2026-04-20 18:45 | 45.36068 | -122.56057 | 37860 ft | 501 kts | 350° |
| 2026-04-20 18:46 | 45.43031 | -122.56619 | 37849 ft | 501 kts | 351° |
| 2026-04-20 18:46 | 45.49940 | -122.57177 | 37851 ft | 501 kts | 350° |
| 2026-04-20 18:47 | 45.56897 | -122.57741 | 37852 ft | 500 kts | 351° |
| 2026-04-20 18:47 | 45.63847 | -122.58306 | 37856 ft | 500 kts | 351° |
| 2026-04-20 18:48 | 45.70796 | -122.58873 | 37872 ft | 500 kts | 350° |
| 2026-04-20 18:48 | 45.77687 | -122.59769 | 37870 ft | 493 kts | 343° |
| 2026-04-20 18:49 | 45.84445 | -122.61480 | 37359 ft | 495 kts | 342° |
| 2026-04-20 18:49 | 45.87831 | -122.62375 | 36737 ft | 494 kts | 342° |
| 2026-04-20 18:49 | 45.91204 | -122.63247 | 36054 ft | 493 kts | 343° |
| 2026-04-20 18:50 | 45.94589 | -122.64103 | 35314 ft | 494 kts | 343° |
| 2026-04-20 18:50 | 45.97981 | -122.64950 | 34529 ft | 496 kts | 343° |
| 2026-04-20 18:50 | 46.01395 | -122.65799 | 33643 ft | 500 kts | 344° |
| 2026-04-20 18:50 | 46.04827 | -122.66651 | 32664 ft | 501 kts | 345° |
| 2026-04-20 18:51 | 46.08264 | -122.67506 | 31839 ft | 499 kts | 347° |
| 2026-04-20 18:51 | 46.11647 | -122.68348 | 31448 ft | 486 kts | 347° |
| 2026-04-20 18:51 | 46.14956 | -122.69176 | 30793 ft | 481 kts | 348° |
| 2026-04-20 18:51 | 46.18229 | -122.70001 | 30177 ft | 474 kts | 349° |
| 2026-04-20 18:52 | 46.21457 | -122.70817 | 29486 ft | 469 kts | 349° |
| 2026-04-20 18:52 | 46.24649 | -122.71624 | 28785 ft | 462 kts | 349° |
| 2026-04-20 18:52 | 46.27788 | -122.72417 | 28123 ft | 454 kts | 349° |
| 2026-04-20 18:52 | 46.30835 | -122.73188 | 27480 ft | 448 kts | 349° |
| 2026-04-20 18:53 | 46.33888 | -122.73962 | 26817 ft | 442 kts | 349° |
| 2026-04-20 18:53 | 46.36903 | -122.74726 | 26166 ft | 437 kts | 349° |
| 2026-04-20 18:53 | 46.39920 | -122.75491 | 25520 ft | 432 kts | 349° |
| 2026-04-20 18:53 | 46.42831 | -122.76230 | 24900 ft | 428 kts | 349° |
| 2026-04-20 18:54 | 46.45749 | -122.76972 | 24275 ft | 423 kts | 349° |
| 2026-04-20 18:54 | 46.48638 | -122.77708 | 23645 ft | 420 kts | 349° |
| 2026-04-20 18:54 | 46.51545 | -122.78448 | 22916 ft | 417 kts | 349° |
| 2026-04-20 18:54 | 46.54349 | -122.79164 | 22232 ft | 413 kts | 349° |
| 2026-04-20 18:55 | 46.57158 | -122.79881 | 21593 ft | 407 kts | 349° |
| 2026-04-20 18:55 | 46.59932 | -122.80591 | 20959 ft | 402 kts | 349° |
| 2026-04-20 18:55 | 46.62673 | -122.81293 | 20347 ft | 398 kts | 349° |
| 2026-04-20 18:55 | 46.65394 | -122.81990 | 19726 ft | 395 kts | 349° |
| 2026-04-20 18:56 | 46.68088 | -122.82681 | 19114 ft | 392 kts | 349° |
| 2026-04-20 18:56 | 46.70763 | -122.83368 | 18512 ft | 389 kts | 349° |
| 2026-04-20 18:56 | 46.73422 | -122.84051 | 17838 ft | 387 kts | 349° |
| 2026-04-20 18:56 | 46.76067 | -122.84731 | 17173 ft | 384 kts | 349° |
| 2026-04-20 18:57 | 46.78690 | -122.85407 | 16539 ft | 381 kts | 349° |
| 2026-04-20 18:57 | 46.81290 | -122.86078 | 15896 ft | 378 kts | 350° |
| 2026-04-20 18:57 | 46.83865 | -122.86743 | 15309 ft | 374 kts | 350° |
| 2026-04-20 18:57 | 46.86422 | -122.87403 | 14708 ft | 371 kts | 350° |
| 2026-04-20 18:58 | 46.88956 | -122.88057 | 14108 ft | 369 kts | 350° |
| 2026-04-20 18:58 | 46.91473 | -122.88708 | 13480 ft | 366 kts | 351° |
| 2026-04-20 18:58 | 46.93962 | -122.89350 | 13097 ft | 355 kts | 352° |
| 2026-04-20 18:58 | 46.96350 | -122.89354 | 12981 ft | 335 kts | 14° |
| 2026-04-20 18:59 | 46.98486 | -122.88259 | 12678 ft | 320 kts | 32° |
| 2026-04-20 18:59 | 47.00266 | -122.86419 | 12360 ft | 310 kts | 44° |
| 2026-04-20 18:59 | 47.01879 | -122.84341 | 12023 ft | 308 kts | 46° |
| 2026-04-20 18:59 | 47.03473 | -122.82239 | 11705 ft | 308 kts | 46° |
| 2026-04-20 19:00 | 47.05071 | -122.80156 | 11370 ft | 306 kts | 45° |
| 2026-04-20 19:00 | 47.06666 | -122.78097 | 11054 ft | 305 kts | 45° |
| 2026-04-20 19:00 | 47.08261 | -122.76055 | 10709 ft | 304 kts | 45° |
| 2026-04-20 19:00 | 47.09851 | -122.74022 | 10398 ft | 302 kts | 45° |
| 2026-04-20 19:01 | 47.11431 | -122.72007 | 10070 ft | 299 kts | 45° |
| 2026-04-20 19:01 | 47.12982 | -122.70023 | 9759 ft | 293 kts | 45° |
| 2026-04-20 19:01 | 47.14505 | -122.68070 | 9422 ft | 287 kts | 45° |
| 2026-04-20 19:01 | 47.15996 | -122.66156 | 9100 ft | 283 kts | 45° |
| 2026-04-20 19:02 | 47.17473 | -122.64261 | 8820 ft | 282 kts | 45° |
| 2026-04-20 19:02 | 47.18948 | -122.62367 | 8515 ft | 282 kts | 44° |
| 2026-04-20 19:02 | 47.20426 | -122.60467 | 8226 ft | 282 kts | 44° |
| 2026-04-20 19:02 | 47.21902 | -122.58570 | 7929 ft | 281 kts | 44° |
| 2026-04-20 19:03 | 47.23372 | -122.56677 | 7630 ft | 281 kts | 44° |
| 2026-04-20 19:03 | 47.24835 | -122.54776 | 7368 ft | 281 kts | 44° |
| 2026-04-20 19:03 | 47.26305 | -122.52879 | 7054 ft | 280 kts | 43° |
| 2026-04-20 19:03 | 47.27762 | -122.51008 | 6734 ft | 276 kts | 43° |
| 2026-04-20 19:04 | 47.29202 | -122.49157 | 6467 ft | 273 kts | 43° |
| 2026-04-20 19:04 | 47.30512 | -122.47183 | 6136 ft | 268 kts | 60° |
| 2026-04-20 19:04 | 47.31150 | -122.44660 | 5831 ft | 261 kts | 81° |
| 2026-04-20 19:04 | 47.31459 | -122.42046 | 5563 ft | 257 kts | 83° |
| 2026-04-20 19:05 | 47.31735 | -122.39441 | 5230 ft | 256 kts | 82° |
| 2026-04-20 19:05 | 47.32021 | -122.36852 | 4968 ft | 257 kts | 83° |
| 2026-04-20 19:05 | 47.32296 | -122.34241 | 4681 ft | 259 kts | 82° |
| 2026-04-20 19:05 | 47.32577 | -122.31617 | 4366 ft | 257 kts | 82° |
| 2026-04-20 19:06 | 47.32857 | -122.29065 | 4097 ft | 254 kts | 82° |
| 2026-04-20 19:06 | 47.33146 | -122.26500 | 3876 ft | 248 kts | 82° |
| 2026-04-20 19:06 | 47.33394 | -122.24036 | 3672 ft | 241 kts | 81° |
| 2026-04-20 19:06 | 47.33667 | -122.21684 | 3555 ft | 224 kts | 81° |
| 2026-04-20 19:07 | 47.33913 | -122.19504 | 3423 ft | 209 kts | 81° |
| 2026-04-20 19:07 | 47.34391 | -122.17567 | 3260 ft | 200 kts | 53° |
| 2026-04-20 19:07 | 47.35443 | -122.16352 | 3219 ft | 190 kts | 25° |
| 2026-04-20 19:07 | 47.36720 | -122.16077 | 3094 ft | 183 kts | 358° |
| 2026-04-20 19:08 | 47.37931 | -122.16714 | 2811 ft | 188 kts | 332° |
| 2026-04-20 19:08 | 47.40106 | -122.18578 | 2223 ft | 169 kts | 332° |
| 2026-04-20 19:08 | 47.41074 | -122.19417 | 1956 ft | 154 kts | 332° |
| 2026-04-20 19:09 | 47.41964 | -122.20135 | 1716 ft | 140 kts | 338° |
| 2026-04-20 19:09 | 47.42843 | -122.20500 | 1503 ft | 121 kts | 350° |
| 2026-04-20 19:09 | 47.43669 | -122.20702 | 1296 ft | 116 kts | 353° |
| 2026-04-20 19:09 | 47.44485 | -122.20851 | 1082 ft | 122 kts | 353° |
| 2026-04-20 19:10 | 47.45331 | -122.20967 | 902 ft | 120 kts | 353° |
| 2026-04-20 19:10 | 47.46158 | -122.21106 | 698 ft | 120 kts | 352° |
| 2026-04-20 19:10 | 47.46997 | -122.21229 | 513 ft | 122 kts | 353° |
| 2026-04-20 19:10 | 47.47839 | -122.21353 | 320 ft | 121 kts | 351° |
| 2026-04-20 19:11 | 47.48671 | -122.21475 | 106 ft | 119 kts | 353° |
| 2026-04-20 19:11 | 47.49452 | -122.21596 | 33 ft | 103 kts | 353° |
| 2026-04-20 19:11 | 47.49815 | -122.21649 | 29 ft | 28 kts | 354° |
| 2026-04-20 19:11 | 47.49970 | -122.21672 | 33 ft | 13 kts | 354° |
| 2026-04-20 19:12 | 47.50038 | -122.21654 | 35 ft | 8 kts | 52° |
| 2026-04-20 19:12 | 47.50047 | -122.21580 | 32 ft | 7 kts | 84° |
| 2026-04-20 19:12 | 47.50051 | -122.21499 | 30 ft | 10 kts | 89° |
| 2026-04-20 19:12 | 47.50049 | -122.21390 | 30 ft | 10 kts | 102° |
| 2026-04-20 19:13 | 47.50002 | -122.21323 | 27 ft | 10 kts | 135° |
| 2026-04-20 19:13 | 47.50001 | -122.21231 | 27 ft | 9 kts | 75° |
| 2026-04-20 19:13 | 47.50018 | -122.21144 | 26 ft | 5 kts | 65° |
| 2026-04-20 19:13 | 47.50046 | -122.21141 | 25 ft | 5 kts | 345° |
| 2026-04-20 19:14 | 47.50051 | -122.21144 | 26 ft | 0 kts | 343° |